Time;durP1;ratioP1;P1;durP2;ratioP2;P2;SDS_P1;SDS_P2;PMS_P1;PMS_P2;Temp;Humidity;BMP_temperature;BMP_pressure;BME280_temperature;BME280_humidity;BME280_pressure;Samples;Min_cycle;Max_cycle;Signal;HPM_P1;HPM_P2
2021/01/18 00:00:12;;;;;;;68.97;28.87;;;-11.90;97.30;;;;;;5019514;28;20575;-73
2021/01/18 00:02:39;;;;;;;63.20;25.17;;;-12.00;97.60;;;;;;5019759;28;20211;-74
2021/01/18 00:05:07;;;;;;;55.97;25.23;;;-12.00;97.80;;;;;;5015516;28;20325;-74
2021/01/18 00:07:43;;;;;;;64.80;29.60;;;-12.00;98.20;;;;;;5017939;28;20644;-74
2021/01/18 00:10:13;;;;;;;62.03;26.37;;;-12.00;98.50;;;;;;5017749;28;20330;-74
2021/01/18 00:12:42;;;;;;;64.07;26.60;;;-11.90;98.60;;;;;;5020576;28;20227;-76
2021/01/18 00:15:09;;;;;;;68.60;27.10;;;-12.00;98.30;;;;;;5017941;28;20206;-76
2021/01/18 00:17:36;;;;;;;63.63;27.43;;;-12.00;98.30;;;;;;5022725;28;20211;-75
2021/01/18 00:20:03;;;;;;;70.30;27.17;;;-12.00;97.90;;;;;;5018335;28;20262;-75
2021/01/18 00:22:31;;;;;;;70.73;28.33;;;-12.00;97.80;;;;;;5019047;28;20290;-76
2021/01/18 00:24:57;;;;;;;71.17;28.87;;;-12.00;97.80;;;;;;5017405;28;20211;-75
2021/01/18 00:27:25;;;;;;;70.27;29.83;;;-12.00;97.50;;;;;;5015104;28;20244;-75
2021/01/18 00:29:51;;;;;;;67.90;25.20;;;-12.00;97.80;;;;;;5017055;28;20671;-74
2021/01/18 00:32:22;;;;;;;65.57;28.13;;;-12.00;98.10;;;;;;5013611;28;20322;-74
2021/01/18 00:34:48;;;;;;;65.43;28.10;;;-12.00;98.20;;;;;;5011633;28;20216;-73
2021/01/18 00:37:16;;;;;;;69.33;28.20;;;-12.00;98.00;;;;;;5011143;28;20239;-74
2021/01/18 00:39:45;;;;;;;62.10;23.67;;;-12.00;97.90;;;;;;5017556;28;20652;-74
2021/01/18 00:42:18;;;;;;;65.20;26.10;;;-12.00;97.80;;;;;;5013881;28;20294;-74
2021/01/18 00:44:46;;;;;;;60.93;25.23;;;-12.00;97.70;;;;;;5011966;28;20220;-76
2021/01/18 00:47:13;;;;;;;67.37;27.43;;;-12.10;97.70;;;;;;5017039;28;20211;-75
2021/01/18 00:49:39;;;;;;;55.83;24.80;;;-12.10;97.90;;;;;;5014643;28;20291;-76
2021/01/18 00:52:06;;;;;;;56.47;23.73;;;-12.10;97.90;;;;;;5018624;28;20739;-76
2021/01/18 00:54:32;;;;;;;65.40;25.03;;;-12.10;98.00;;;;;;5019837;28;20269;-75
2021/01/18 00:56:58;;;;;;;68.13;26.07;;;-12.10;97.90;;;;;;5016199;28;20221;-75
2021/01/18 00:59:25;;;;;;;71.17;28.27;;;-12.10;98.00;;;;;;5009825;28;20274;-74
2021/01/18 01:01:52;;;;;;;77.10;29.83;;;-12.20;97.90;;;;;;5010557;28;20290;-74
2021/01/18 01:04:19;;;;;;;77.83;30.37;;;-12.20;97.90;;;;;;5014670;28;20207;-75
2021/01/18 01:06:46;;;;;;;85.17;31.03;;;-12.20;98.00;;;;;;5019430;28;20274;-74
2021/01/18 01:09:12;;;;;;;81.00;32.17;;;-12.20;98.30;;;;;;5021069;28;20214;-74
2021/01/18 01:11:44;;;;;;;79.60;31.10;;;-12.30;98.40;;;;;;5013813;28;20595;-75
2021/01/18 01:14:10;;;;;;;76.13;32.40;;;-12.30;98.40;;;;;;5019647;28;20203;-74
2021/01/18 01:16:37;;;;;;;78.63;31.90;;;-12.30;98.50;;;;;;5018308;28;20199;-75
2021/01/18 01:19:05;;;;;;;97.67;30.83;;;-12.30;98.70;;;;;;5017941;28;20649;-75
2021/01/18 01:21:32;;;;;;;89.73;34.97;;;-12.40;99.00;;;;;;5014245;28;20303;-75
2021/01/18 01:23:58;;;;;;;85.17;34.73;;;-12.40;99.10;;;;;;5018918;28;20203;-74
2021/01/18 01:26:29;;;;;;;91.27;32.47;;;-12.40;99.60;;;;;;5022538;28;20230;-76
2021/01/18 01:28:55;;;;;;;81.33;31.70;;;-12.40;99.90;;;;;;5025923;28;20237;-75
2021/01/18 01:31:21;;;;;;;87.23;32.70;;;-12.30;99.90;;;;;;5009478;28;20338;-75
2021/01/18 01:33:48;;;;;;;93.97;34.77;;;-12.40;99.90;;;;;;5017261;28;20298;-75
2021/01/18 01:36:15;;;;;;;95.03;34.60;;;-12.40;99.90;;;;;;5014253;28;20266;-76
2021/01/18 01:38:42;;;;;;;87.87;35.53;;;-12.30;99.90;;;;;;5012324;28;20208;-75
2021/01/18 01:41:09;;;;;;;90.40;33.50;;;-12.30;99.90;;;;;;5020071;28;20239;-75
2021/01/18 01:43:39;;;;;;;99.67;35.67;;;-12.30;99.90;;;;;;5020241;28;20861;-76
2021/01/18 01:46:09;;;;;;;94.27;38.23;;;-12.30;99.90;;;;;;5012648;28;20215;-74
2021/01/18 01:48:35;;;;;;;89.30;36.53;;;-12.30;99.90;;;;;;5012195;28;20220;-74
2021/01/18 01:51:02;;;;;;;99.87;36.97;;;-12.20;99.90;;;;;;5012646;28;20218;-73
2021/01/18 01:53:31;;;;;;;106.17;41.00;;;-12.20;99.90;;;;;;5020160;28;20521;-73
2021/01/18 01:55:58;;;;;;;96.27;36.33;;;-12.20;99.90;;;;;;5012632;28;20582;-75
2021/01/18 01:58:25;;;;;;;106.33;43.73;;;-12.20;99.90;;;;;;5018712;28;20207;-74
2021/01/18 02:00:54;;;;;;;116.30;42.63;;;-12.30;99.90;;;;;;5026822;28;20242;-75
2021/01/18 02:03:29;;;;;;;110.83;42.03;;;-12.30;99.90;;;;;;5021208;28;20670;-75
2021/01/18 02:05:56;;;;;;;103.13;42.20;;;-12.40;99.90;;;;;;5018348;28;20826;-75
2021/01/18 02:08:23;;;;;;;122.87;46.97;;;-12.40;99.90;;;;;;5014065;28;20210;-75
2021/01/18 02:10:50;;;;;;;110.43;45.10;;;-12.50;99.90;;;;;;5012260;28;20310;-75
2021/01/18 02:13:25;;;;;;;127.33;45.07;;;-12.50;99.90;;;;;;5016631;28;20235;-75
2021/01/18 02:16:02;;;;;;;99.90;38.70;;;-12.50;99.90;;;;;;5011711;28;20207;-74
2021/01/18 02:18:47;;;;;;;112.47;42.33;;;-12.60;99.90;;;;;;5013057;28;20210;-74
2021/01/18 02:21:50;;;;;;;119.30;42.13;;;-12.60;99.90;;;;;;5013914;28;20211;-74
2021/01/18 02:24:50;;;;;;;110.20;42.43;;;-12.70;99.90;;;;;;5007708;28;20571;-74
2021/01/18 02:27:46;;;;;;;125.97;41.93;;;-12.70;99.90;;;;;;5017738;28;20299;-75
2021/01/18 02:30:31;;;;;;;109.13;40.43;;;-12.80;99.90;;;;;;5014243;28;20242;-75
2021/01/18 02:33:34;;;;;;;111.07;39.57;;;-12.80;99.90;;;;;;5015978;28;20207;-75
2021/01/18 02:36:11;;;;;;;120.50;45.20;;;-12.80;99.90;;;;;;5014431;28;20325;-75
2021/01/18 02:38:52;;;;;;;110.77;39.80;;;-12.90;99.90;;;;;;5022664;28;20245;-75
2021/01/18 02:41:29;;;;;;;117.43;39.93;;;-12.90;99.90;;;;;;5013512;28;20207;-75
2021/01/18 02:44:01;;;;;;;112.60;39.30;;;-12.90;99.90;;;;;;5019567;28;20207;-74
2021/01/18 02:46:30;;;;;;;120.47;43.60;;;-13.00;99.90;;;;;;5012936;28;20657;-75
2021/01/18 02:48:58;;;;;;;101.47;42.23;;;-13.10;99.90;;;;;;5048233;28;20648;-76
2021/01/18 02:51:28;;;;;;;100.20;37.27;;;-13.10;99.90;;;;;;5015109;28;20314;-74
2021/01/18 02:53:56;;;;;;;120.50;43.30;;;-13.20;99.90;;;;;;5016533;28;20218;-75
2021/01/18 02:56:26;;;;;;;116.07;40.67;;;-13.10;99.90;;;;;;5009776;28;20243;-75
2021/01/18 02:58:54;;;;;;;132.97;46.37;;;-13.10;99.90;;;;;;5013745;28;20204;-75
2021/01/18 03:01:50;;;;;;;116.57;41.23;;;-13.10;99.90;;;;;;5015301;28;20203;-74
2021/01/18 03:04:28;;;;;;;111.97;39.97;;;-13.10;99.90;;;;;;5011593;28;20206;-76
2021/01/18 03:07:01;;;;;;;114.80;41.43;;;-13.10;99.90;;;;;;5014055;28;20235;-76
2021/01/18 03:09:40;;;;;;;106.27;41.23;;;-13.10;99.90;;;;;;5015019;28;20284;-76
2021/01/18 03:12:11;;;;;;;102.90;37.50;;;-13.10;99.90;;;;;;5012576;28;20231;-76
2021/01/18 03:14:43;;;;;;;101.30;38.30;;;-13.10;99.90;;;;;;5024139;28;20281;-76
2021/01/18 03:17:12;;;;;;;106.77;40.13;;;-13.10;99.90;;;;;;5016530;28;20239;-75
2021/01/18 03:19:41;;;;;;;106.93;41.43;;;-13.20;99.90;;;;;;5017875;28;20223;-74
2021/01/18 03:22:10;;;;;;;124.20;43.47;;;-13.20;99.90;;;;;;5017783;28;20243;-74
2021/01/18 03:24:36;;;;;;;107.63;42.23;;;-13.20;99.90;;;;;;5013453;28;20204;-75
2021/01/18 03:27:04;;;;;;;119.60;43.23;;;-13.30;99.90;;;;;;5015085;28;20294;-75
2021/01/18 03:29:30;;;;;;;106.67;40.57;;;-13.30;99.90;;;;;;5017234;28;20744;-75
2021/01/18 03:31:57;;;;;;;124.87;45.20;;;-13.30;99.90;;;;;;5018291;28;20231;-76
2021/01/18 03:34:23;;;;;;;100.10;42.90;;;-13.40;99.90;;;;;;5013894;28;20293;-76
2021/01/18 03:36:49;;;;;;;110.60;41.30;;;-13.30;99.90;;;;;;5016626;28;20583;-76
2021/01/18 03:39:17;;;;;;;124.87;42.87;;;-13.30;99.90;;;;;;5017426;28;20210;-76
2021/01/18 03:41:45;;;;;;;111.80;43.43;;;-13.30;99.90;;;;;;5018703;28;20206;-75
2021/01/18 03:44:11;;;;;;;116.17;42.40;;;-13.30;99.90;;;;;;5012170;28;20214;-75
2021/01/18 03:46:44;;;;;;;132.20;46.37;;;-13.30;99.90;;;;;;5017903;28;20321;-75
2021/01/18 03:49:10;;;;;;;117.67;43.83;;;-13.40;99.90;;;;;;5013949;28;20215;-74
2021/01/18 03:51:37;;;;;;;132.97;42.47;;;-13.40;99.90;;;;;;5017820;28;20582;-75
2021/01/18 03:54:04;;;;;;;126.70;45.23;;;-13.40;99.90;;;;;;5018470;28;20318;-75
2021/01/18 03:56:31;;;;;;;133.97;45.93;;;-13.40;99.90;;;;;;5013903;28;20274;-75
2021/01/18 03:58:58;;;;;;;115.67;46.17;;;-13.40;99.90;;;;;;5010671;28;20204;-75
2021/01/18 04:01:24;;;;;;;122.93;47.23;;;-13.40;99.90;;;;;;5008895;28;20286;-74
2021/01/18 04:03:51;;;;;;;119.53;44.70;;;-13.40;99.90;;;;;;5017429;28;20265;-74
2021/01/18 04:06:17;;;;;;;108.33;42.37;;;-13.40;99.90;;;;;;5012119;28;20674;-75
2021/01/18 04:08:44;;;;;;;131.37;46.30;;;-13.40;99.90;;;;;;5017735;28;20300;-75
2021/01/18 04:11:10;;;;;;;112.63;44.07;;;-13.40;99.90;;;;;;5018119;28;20672;-75
2021/01/18 04:13:37;;;;;;;127.10;45.37;;;-13.50;99.90;;;;;;5015892;28;20298;-74
2021/01/18 04:16:04;;;;;;;124.30;45.57;;;-13.50;99.90;;;;;;5022403;28;20207;-76
2021/01/18 04:18:31;;;;;;;123.13;43.70;;;-13.50;99.90;;;;;;5021531;28;20233;-74
2021/01/18 04:20:57;;;;;;;120.60;44.00;;;-13.40;99.90;;;;;;5024893;28;20211;-74
2021/01/18 04:23:23;;;;;;;114.27;43.00;;;-13.40;99.90;;;;;;5049146;28;20216;-75
2021/01/18 04:25:50;;;;;;;112.83;43.10;;;-13.50;99.90;;;;;;5014400;28;20578;-75
2021/01/18 04:28:16;;;;;;;117.50;44.07;;;-13.40;99.90;;;;;;5014998;28;20317;-75
2021/01/18 04:30:43;;;;;;;107.13;42.60;;;-13.40;99.90;;;;;;5013794;28;20655;-74
2021/01/18 04:33:10;;;;;;;116.67;45.83;;;-13.40;99.90;;;;;;5010100;28;20219;-75
2021/01/18 04:35:38;;;;;;;117.73;44.63;;;-13.40;99.90;;;;;;5020118;28;20370;-74
2021/01/18 04:38:05;;;;;;;112.07;42.60;;;-13.40;99.90;;;;;;5020466;28;20246;-74
2021/01/18 04:40:33;;;;;;;118.43;42.20;;;-13.30;99.90;;;;;;5019144;28;20282;-74
2021/01/18 04:42:59;;;;;;;101.30;39.07;;;-13.30;99.90;;;;;;5016611;28;20440;-76
2021/01/18 04:45:28;;;;;;;114.43;43.87;;;-13.30;99.90;;;;;;5012093;28;20708;-75
2021/01/18 04:48:02;;;;;;;101.40;40.00;;;-13.20;99.90;;;;;;5021735;28;20671;-73
2021/01/18 04:50:29;;;;;;;120.87;44.30;;;-13.30;99.90;;;;;;5019787;28;20204;-74
2021/01/18 04:52:57;;;;;;;115.97;43.37;;;-13.40;99.90;;;;;;5017250;28;20211;-74
2021/01/18 04:55:28;;;;;;;117.10;46.23;;;-13.40;99.90;;;;;;5010262;28;20302;-74
2021/01/18 04:58:13;;;;;;;122.77;47.40;;;-13.40;99.90;;;;;;5013726;28;20203;-76
2021/01/18 05:00:44;;;;;;;121.00;44.07;;;-13.50;99.90;;;;;;5022552;28;20203;-73
2021/01/18 05:03:13;;;;;;;118.60;44.60;;;-13.50;99.90;;;;;;5012465;28;20664;-74
2021/01/18 05:06:02;;;;;;;124.93;45.20;;;-13.40;99.90;;;;;;5019770;28;20258;-75
2021/01/18 05:08:52;;;;;;;121.10;44.20;;;-13.60;99.90;;;;;;5010488;28;20204;-75
2021/01/18 05:11:19;;;;;;;117.63;43.20;;;-13.50;99.90;;;;;;5013550;28;20586;-75
2021/01/18 05:13:46;;;;;;;121.87;43.80;;;-13.50;99.90;;;;;;5013282;28;20317;-74
2021/01/18 05:16:12;;;;;;;113.80;44.17;;;-13.50;99.90;;;;;;5012447;28;20299;-75
2021/01/18 05:18:41;;;;;;;110.93;42.57;;;-13.60;99.90;;;;;;5016206;28;20286;-75
2021/01/18 05:21:08;;;;;;;108.77;42.63;;;-13.60;99.90;;;;;;5013584;28;20214;-75
2021/01/18 05:23:39;;;;;;;125.70;44.97;;;-13.60;99.90;;;;;;5019761;28;20211;-75
2021/01/18 05:26:15;;;;;;;123.37;44.83;;;-13.60;99.90;;;;;;5011491;28;20208;-75
2021/01/18 05:28:44;;;;;;;134.77;45.70;;;-13.60;99.90;;;;;;5013505;28;20207;-74
2021/01/18 05:31:11;;;;;;;120.37;43.63;;;-13.70;99.90;;;;;;5020178;28;20223;-74
2021/01/18 05:33:38;;;;;;;135.97;47.13;;;-13.70;99.90;;;;;;5014640;28;20230;-74
2021/01/18 05:36:06;;;;;;;116.30;46.40;;;-13.70;99.90;;;;;;5012428;28;20670;-75
2021/01/18 05:38:33;;;;;;;116.70;43.03;;;-13.20;99.90;;;;;;5016488;28;20238;-74
2021/01/18 05:41:01;;;;;;;124.67;46.63;;;-13.70;99.90;;;;;;5011724;28;20220;-75
2021/01/18 05:43:34;;;;;;;115.63;47.03;;;-13.70;99.90;;;;;;5010547;28;20208;-75
2021/01/18 05:46:05;;;;;;;107.03;41.20;;;-13.60;99.90;;;;;;5017151;28;20210;-74
2021/01/18 05:48:32;;;;;;;143.73;48.93;;;-13.60;99.90;;;;;;5023427;28;20203;-75
2021/01/18 05:50:59;;;;;;;123.67;47.10;;;-13.60;99.90;;;;;;5014852;28;20231;-74
2021/01/18 05:53:27;;;;;;;118.77;44.20;;;-13.60;99.90;;;;;;5012735;28;20294;-74
2021/01/18 05:55:54;;;;;;;112.37;43.43;;;-13.60;99.90;;;;;;5014098;28;20213;-75
2021/01/18 05:58:31;;;;;;;116.10;42.23;;;-13.50;99.90;;;;;;5015319;28;20207;-75
2021/01/18 06:00:58;;;;;;;118.83;43.10;;;-13.50;99.90;;;;;;5012927;28;20218;-76
2021/01/18 06:03:28;;;;;;;116.00;46.37;;;-13.50;99.90;;;;;;5018495;28;20755;-77
2021/01/18 06:05:55;;;;;;;109.53;43.20;;;-13.50;99.90;;;;;;5021125;28;20242;-76
2021/01/18 06:08:21;;;;;;;113.07;43.33;;;-13.40;99.90;;;;;;5016619;28;20298;-76
2021/01/18 06:10:51;;;;;;;121.03;42.47;;;-13.50;99.90;;;;;;5012211;28;20207;-75
2021/01/18 06:13:20;;;;;;;101.60;41.77;;;-13.60;99.90;;;;;;5017447;28;20295;-77
2021/01/18 06:15:47;;;;;;;101.93;40.97;;;-13.60;99.90;;;;;;5013548;28;20215;-76
2021/01/18 06:18:14;;;;;;;117.17;44.70;;;-13.60;99.90;;;;;;5016256;28;20215;-77
2021/01/18 06:20:42;;;;;;;112.37;43.73;;;-13.60;99.90;;;;;;5018148;28;20568;-77
2021/01/18 06:23:09;;;;;;;118.90;46.03;;;-13.60;99.90;;;;;;5016816;28;20243;-77
2021/01/18 06:25:38;;;;;;;121.07;43.07;;;-13.60;99.90;;;;;;5016660;28;20333;-77
2021/01/18 06:28:27;;;;;;;122.40;47.40;;;-13.60;99.90;;;;;;5013871;28;20200;-76
2021/01/18 06:30:58;;;;;;;134.60;45.27;;;-13.50;99.90;;;;;;5018702;28;20235;-75
2021/01/18 06:33:40;;;;;;;148.07;45.47;;;-13.50;99.90;;;;;;5014352;28;20208;-75
2021/01/18 06:36:14;;;;;;;123.80;43.83;;;-13.50;99.90;;;;;;5003976;28;20237;-75
2021/01/18 06:38:42;;;;;;;141.13;50.10;;;-13.50;99.90;;;;;;5003454;28;20290;-76
2021/01/18 06:41:10;;;;;;;113.60;46.40;;;-13.50;99.90;;;;;;5006445;28;20212;-77
2021/01/18 06:43:45;;;;;;;141.03;49.17;;;-13.50;99.90;;;;;;5014502;28;20712;-75
2021/01/18 06:46:16;;;;;;;134.87;43.90;;;-13.40;99.90;;;;;;5009157;28;20209;-79
2021/01/18 06:48:44;;;;;;;131.30;44.30;;;-13.40;99.90;;;;;;5013378;28;20231;-77
2021/01/18 06:51:14;;;;;;;132.07;45.53;;;-13.40;99.90;;;;;;5013092;28;20219;-75
2021/01/18 06:53:43;;;;;;;115.63;45.40;;;-13.40;99.90;;;;;;5009721;28;20245;-75
2021/01/18 06:56:32;;;;;;;137.17;48.80;;;-13.40;99.90;;;;;;5022340;28;20210;-75
2021/01/18 06:59:05;;;;;;;133.40;47.13;;;-13.40;99.90;;;;;;5000110;28;20778;-75
2021/01/18 07:01:35;;;;;;;118.37;43.57;;;-13.40;99.90;;;;;;5009433;28;20700;-75
2021/01/18 07:04:06;;;;;;;121.53;46.43;;;-13.40;99.90;;;;;;5014521;28;20211;-75
2021/01/18 07:06:35;;;;;;;122.10;44.53;;;-13.40;99.90;;;;;;5002914;28;20310;-75
2021/01/18 07:09:04;;;;;;;151.90;51.63;;;-13.40;99.90;;;;;;5004969;28;20212;-76
2021/01/18 07:11:32;;;;;;;125.63;45.83;;;-13.40;99.90;;;;;;5002563;28;20236;-77
2021/01/18 07:14:02;;;;;;;120.13;47.83;;;-13.30;99.90;;;;;;5009180;28;20218;-75
2021/01/18 07:16:30;;;;;;;124.60;44.87;;;-13.20;99.90;;;;;;5017225;28;20674;-76
2021/01/18 07:19:01;;;;;;;123.73;43.17;;;-13.20;99.90;;;;;;5003672;28;20626;-76
2021/01/18 07:21:30;;;;;;;108.87;43.33;;;-13.10;99.90;;;;;;5005041;28;20212;-75
2021/01/18 07:23:58;;;;;;;114.90;44.17;;;-13.10;99.90;;;;;;4998484;28;20204;-76
2021/01/18 07:26:45;;;;;;;115.83;45.63;;;-13.00;99.90;;;;;;5009246;28;20212;-75
2021/01/18 07:29:15;;;;;;;135.50;46.77;;;-12.80;99.90;;;;;;4995902;28;20212;-75
2021/01/18 07:31:47;;;;;;;124.17;45.03;;;-12.70;99.90;;;;;;5001339;28;20282;-75
2021/01/18 07:34:14;;;;;;;119.27;46.07;;;-12.50;99.90;;;;;;5009339;28;20608;-76
2021/01/18 07:36:42;;;;;;;125.60;46.43;;;-12.50;99.90;;;;;;5004818;28;20208;-75
2021/01/18 07:39:23;;;;;;;116.70;44.80;;;-12.40;99.90;;;;;;5009590;28;20231;-75
2021/01/18 07:41:49;;;;;;;111.27;43.80;;;-12.30;99.90;;;;;;5001679;28;20664;-77
2021/01/18 07:44:40;;;;;;;131.40;46.77;;;-12.20;99.90;;;;;;5009980;28;20247;-75
2021/01/18 07:47:09;;;;;;;132.23;45.40;;;-12.20;99.90;;;;;;5005016;28;20208;-73
2021/01/18 07:49:46;;;;;;;99.13;37.73;;;-12.00;99.90;;;;;;4996843;28;20736;-75
2021/01/18 07:52:29;;;;;;;111.97;38.80;;;-12.00;99.90;;;;;;5007852;28;20242;-75
2021/01/18 07:55:00;;;;;;;126.40;48.60;;;-11.90;99.90;;;;;;5004056;28;20216;-75
2021/01/18 07:57:40;;;;;;;132.33;46.93;;;-11.90;99.90;;;;;;5013618;28;20230;-76
2021/01/18 08:00:32;;;;;;;121.73;46.20;;;-11.70;99.90;;;;;;5010603;28;20219;-73
2021/01/18 08:03:24;;;;;;;127.97;45.33;;;-11.70;99.90;;;;;;5014882;28;20200;-73
2021/01/18 08:06:12;;;;;;;105.73;44.47;;;-11.50;99.90;;;;;;5010139;28;20261;-74
2021/01/18 08:08:40;;;;;;;128.93;47.77;;;-11.50;99.90;;;;;;5009202;28;20238;-71
2021/01/18 08:11:13;;;;;;;120.77;45.13;;;-11.40;99.90;;;;;;5011214;28;20236;-74
2021/01/18 08:13:54;;;;;;;131.67;49.33;;;-11.20;99.90;;;;;;5009341;28;20602;-76
2021/01/18 08:16:42;;;;;;;135.20;50.10;;;-11.00;99.90;;;;;;5016211;28;20211;-75
2021/01/18 08:19:24;;;;;;;131.07;49.80;;;-10.70;99.90;;;;;;5005983;28;20299;-76
2021/01/18 08:22:01;;;;;;;113.13;44.70;;;-10.50;99.90;;;;;;5015329;28;20208;-76
2021/01/18 08:24:52;;;;;;;135.47;51.67;;;-10.40;99.90;;;;;;5011911;28;20203;-72
2021/01/18 08:27:42;;;;;;;112.93;44.10;;;-10.30;99.90;;;;;;5017071;28;20213;-74
2021/01/18 08:30:22;;;;;;;131.73;50.13;;;-10.10;99.80;;;;;;5012176;28;20653;-74
2021/01/18 08:32:57;;;;;;;126.37;47.50;;;-10.10;98.50;;;;;;5005501;28;20227;-75
2021/01/18 08:35:31;;;;;;;137.00;52.03;;;-10.00;97.80;;;;;;5012688;28;20276;-73
2021/01/18 08:38:00;;;;;;;135.17;50.50;;;-10.00;97.90;;;;;;5016437;28;20196;-72
2021/01/18 08:40:44;;;;;;;140.80;50.70;;;-9.80;97.90;;;;;;5014907;28;20235;-74
2021/01/18 08:43:12;;;;;;;143.73;49.53;;;-9.60;97.70;;;;;;5017902;28;20196;-74
2021/01/18 08:45:41;;;;;;;122.63;49.37;;;-9.50;97.10;;;;;;5014292;28;20216;-73
2021/01/18 08:48:09;;;;;;;130.10;50.10;;;-9.40;96.80;;;;;;5017511;28;20294;-73
2021/01/18 08:50:41;;;;;;;137.60;49.33;;;-9.10;96.90;;;;;;5010178;28;20243;-73
2021/01/18 08:53:30;;;;;;;138.97;53.07;;;-8.90;96.60;;;;;;5018048;28;20279;-76
2021/01/18 08:55:57;;;;;;;134.53;52.37;;;-8.50;99.20;;;;;;5018086;28;20235;-75
2021/01/18 08:58:42;;;;;;;144.30;52.87;;;-7.70;99.90;;;;;;5016859;28;20673;-76
2021/01/18 09:01:12;;;;;;;133.60;55.47;;;-6.40;99.40;;;;;;5005064;28;20299;-74
2021/01/18 09:03:39;;;;;;;143.87;57.83;;;-5.40;97.70;;;;;;5003841;28;20206;-75
2021/01/18 09:06:07;;;;;;;145.63;59.27;;;-4.40;91.90;;;;;;5009331;28;20259;-74
2021/01/18 09:08:34;;;;;;;131.93;56.47;;;-3.30;89.70;;;;;;4998056;28;20216;-74
2021/01/18 09:11:02;;;;;;;125.67;57.73;;;-2.20;80.20;;;;;;5000152;28;20203;-74
2021/01/18 09:13:31;;;;;;;115.93;50.70;;;-1.00;71.60;;;;;;5014057;28;20298;-74
2021/01/18 09:15:59;;;;;;;107.27;49.67;;;-0.20;64.30;;;;;;5008371;28;20337;-75
2021/01/18 09:18:27;;;;;;;113.23;50.27;;;0.40;59.60;;;;;;5001724;28;20294;-75
2021/01/18 09:20:55;;;;;;;115.70;51.33;;;0.90;55.90;;;;;;5007460;28;20218;-76
2021/01/18 09:23:25;;;;;;;110.10;50.60;;;1.20;52.80;;;;;;4998842;28;20247;-75
2021/01/18 09:26:01;;;;;;;116.67;51.97;;;1.20;49.30;;;;;;5010962;28;20218;-75
2021/01/18 09:28:28;;;;;;;112.43;51.70;;;1.00;48.20;;;;;;5017188;28;20215;-75
2021/01/18 09:30:54;;;;;;;111.67;51.20;;;1.20;48.10;;;;;;4996216;28;20286;-76
2021/01/18 09:33:28;;;;;;;113.50;49.70;;;1.40;46.30;;;;;;5000548;28;20682;-76
2021/01/18 09:35:54;;;;;;;112.40;48.03;;;1.20;44.50;;;;;;5008528;28;20295;-76
2021/01/18 09:38:21;;;;;;;108.20;50.13;;;1.00;43.40;;;;;;5003591;28;20211;-74
2021/01/18 09:40:48;;;;;;;107.70;49.27;;;0.30;41.80;;;;;;5006758;28;20222;-74
2021/01/18 09:43:22;;;;;;;109.47;49.57;;;-0.40;43.00;;;;;;5008678;28;20290;-74
2021/01/18 09:45:55;;;;;;;114.20;50.97;;;-1.00;43.90;;;;;;5002193;28;20224;-75
2021/01/18 09:48:24;;;;;;;109.33;50.50;;;-1.90;43.70;;;;;;5004498;28;20203;-76
2021/01/18 09:50:58;;;;;;;118.43;50.37;;;-2.80;44.30;;;;;;5011031;28;20211;-75
2021/01/18 09:53:26;;;;;;;118.33;52.30;;;-3.60;45.60;;;;;;5009771;28;20195;-75
2021/01/18 09:55:54;;;;;;;122.20;51.63;;;-4.30;46.90;;;;;;5012793;28;20203;-75
2021/01/18 09:58:26;;;;;;;122.40;52.27;;;-4.80;47.90;;;;;;5010447;28;20693;-74
2021/01/18 10:00:53;;;;;;;121.47;52.00;;;-5.50;48.40;;;;;;5012671;28;20211;-75
2021/01/18 10:03:28;;;;;;;130.97;54.23;;;-6.00;50.00;;;;;;5011444;28;20199;-75
2021/01/18 10:06:03;;;;;;;123.57;50.03;;;-6.30;51.80;;;;;;5017961;28;20243;-75
2021/01/18 10:08:32;;;;;;;116.93;48.60;;;-6.40;52.80;;;;;;5006543;28;20206;-73
2021/01/18 10:11:00;;;;;;;120.97;50.57;;;-6.30;54.50;;;;;;5015152;28;20207;-78
2021/01/18 10:13:27;;;;;;;123.07;49.43;;;-5.70;57.30;;;;;;5007236;28;20262;-77
2021/01/18 10:15:54;;;;;;;113.63;45.40;;;-4.70;59.70;;;;;;5008952;28;20613;-76
2021/01/18 10:18:28;;;;;;;108.87;48.13;;;-3.40;59.00;;;;;;5011407;28;20257;-78
2021/01/18 10:20:55;;;;;;;103.47;49.80;;;-2.30;55.60;;;;;;5013776;28;20330;-76
2021/01/18 10:23:22;;;;;;;106.47;50.13;;;-1.40;53.70;;;;;;5012697;28;20602;-75
2021/01/18 10:25:49;;;;;;;100.80;47.07;;;-0.50;51.50;;;;;;5011624;28;20207;-76
2021/01/18 10:28:21;;;;;;;97.57;45.83;;;0.50;49.70;;;;;;5014421;28;20267;-74
2021/01/18 10:30:48;;;;;;;103.93;46.30;;;1.40;48.30;;;;;;5009711;28;20227;-73
2021/01/18 10:33:18;;;;;;;89.50;42.37;;;2.20;45.80;;;;;;5011904;28;20234;-74
2021/01/18 10:35:46;;;;;;;95.90;43.87;;;3.30;44.50;;;;;;5014151;28;20307;-74
2021/01/18 10:38:27;;;;;;;92.43;45.27;;;4.20;43.00;;;;;;5003931;28;20214;-75
2021/01/18 10:41:04;;;;;;;98.10;46.23;;;5.00;40.60;;;;;;5008691;28;20353;-74
2021/01/18 10:43:30;;;;;;;91.57;44.13;;;5.60;39.80;;;;;;5006048;28;20233;-74
2021/01/18 10:45:58;;;;;;;86.40;42.77;;;6.80;39.70;;;;;;5013121;28;20214;-74
2021/01/18 10:48:29;;;;;;;82.27;40.50;;;8.00;36.90;;;;;;5010172;28;20714;-74
2021/01/18 10:50:57;;;;;;;88.47;43.10;;;9.10;35.60;;;;;;5013197;28;20200;-74
2021/01/18 10:53:28;;;;;;;81.17;41.37;;;10.00;32.90;;;;;;5010423;28;20227;-74
2021/01/18 10:58:56;;;;;;;76.13;42.17;;;11.00;31.70;;;;;;5096800;27;866670;-73
2021/01/18 11:01:23;;;;;;;79.60;43.47;;;12.50;29.60;;;;;;5123476;28;20269;-74
2021/01/18 11:03:50;;;;;;;83.87;42.33;;;12.70;27.80;;;;;;5125760;28;20230;-75
2021/01/18 11:06:18;;;;;;;77.37;41.97;;;12.50;27.00;;;;;;5121322;28;20246;-75
2021/01/18 11:08:50;;;;;;;72.77;40.43;;;12.20;27.50;;;;;;5115760;28;20287;-77
2021/01/18 11:11:20;;;;;;;72.57;40.90;;;12.10;27.50;;;;;;5115972;28;20235;-78
2021/01/18 11:13:46;;;;;;;66.23;36.77;;;11.90;27.40;;;;;;5101581;28;20200;-77
2021/01/18 11:16:15;;;;;;;62.30;36.37;;;11.50;26.50;;;;;;5096617;28;20269;-76
2021/01/18 11:18:43;;;;;;;64.87;35.80;;;11.20;26.80;;;;;;5102240;28;20232;-76
2021/01/18 11:21:10;;;;;;;67.70;36.83;;;10.90;26.80;;;;;;5085655;28;20232;-77
2021/01/18 11:23:37;;;;;;;68.00;37.50;;;11.10;26.90;;;;;;5085600;28;20620;-76
2021/01/18 11:26:05;;;;;;;65.30;37.33;;;11.70;27.20;;;;;;5096309;28;20228;-75
2021/01/18 11:28:31;;;;;;;65.10;37.07;;;12.50;26.70;;;;;;5104475;28;20196;-75
2021/01/18 11:31:00;;;;;;;69.70;40.20;;;13.10;26.20;;;;;;5090746;28;20299;-75
2021/01/18 11:33:27;;;;;;;74.23;39.37;;;13.60;25.70;;;;;;5091557;28;20212;-74
2021/01/18 11:35:54;;;;;;;71.50;39.23;;;13.90;25.50;;;;;;5091053;28;20277;-74
2021/01/18 11:38:20;;;;;;;66.17;38.47;;;13.60;24.80;;;;;;5090671;28;20624;-75
2021/01/18 11:40:47;;;;;;;67.63;38.23;;;13.30;24.90;;;;;;5091524;28;20227;-75
2021/01/18 11:43:14;;;;;;;76.90;41.67;;;13.00;24.50;;;;;;5100011;28;20217;-74
2021/01/18 11:45:40;;;;;;;69.27;38.57;;;12.10;24.20;;;;;;5091597;28;20262;-74
2021/01/18 11:48:07;;;;;;;70.67;38.30;;;11.20;24.20;;;;;;5091519;28;20291;-74
2021/01/18 11:50:35;;;;;;;73.70;39.67;;;10.10;24.30;;;;;;5090981;28;20201;-74
2021/01/18 11:53:01;;;;;;;72.97;38.83;;;9.00;25.30;;;;;;5098854;28;20726;-75
2021/01/18 11:55:28;;;;;;;78.13;38.57;;;7.70;26.00;;;;;;5089596;28;20661;-73
2021/01/18 11:57:55;;;;;;;75.83;37.23;;;6.10;26.30;;;;;;5098732;28;20712;-73
2021/01/18 12:00:24;;;;;;;73.57;39.77;;;4.80;27.70;;;;;;5099577;28;20211;-74
2021/01/18 12:02:54;;;;;;;83.37;39.37;;;3.60;28.50;;;;;;5097803;28;20209;-73
2021/01/18 12:05:24;;;;;;;78.10;38.90;;;2.50;29.60;;;;;;5090026;28;20310;-72
2021/01/18 12:07:52;;;;;;;74.77;37.00;;;1.50;30.80;;;;;;5089319;28;20240;-72
2021/01/18 12:10:19;;;;;;;80.23;38.23;;;0.50;31.40;;;;;;5076221;28;20455;-73
2021/01/18 12:12:45;;;;;;;73.53;37.20;;;-0.30;32.90;;;;;;5072932;28;20256;-72
2021/01/18 12:15:12;;;;;;;74.43;35.93;;;-1.00;34.10;;;;;;5072959;28;20241;-73
2021/01/18 12:17:40;;;;;;;81.07;38.07;;;-1.60;35.10;;;;;;5077091;28;20217;-74
2021/01/18 12:20:07;;;;;;;80.60;36.47;;;-2.20;36.00;;;;;;5076280;28;20677;-75
2021/01/18 12:22:35;;;;;;;76.90;35.80;;;-2.70;37.90;;;;;;5077720;28;20205;-75
2021/01/18 12:25:04;;;;;;;76.47;33.30;;;-3.20;37.90;;;;;;5077375;28;20642;-74
2021/01/18 12:27:30;;;;;;;79.40;35.47;;;-3.70;39.00;;;;;;5078227;28;20255;-74
2021/01/18 12:29:58;;;;;;;76.83;31.50;;;-4.30;39.80;;;;;;5075451;28;20745;-73
2021/01/18 12:32:24;;;;;;;72.57;33.00;;;-4.70;40.80;;;;;;5075593;28;20662;-72
2021/01/18 12:34:51;;;;;;;76.30;33.37;;;-5.30;41.50;;;;;;5074877;28;20225;-74